Terminal Aerodrome Forecast
Issued by NWS Wilmington, OH

Current Version | Previous Version | Graphics & Text | Print | Product List | Glossary On
Versions: 1 2 3 4 5 6 7 8 9 10 11 12 13 14
128
FTUS41 KILN 211720
TAFDAY
TAF
KDAY 211720Z 2118/2218 16005KT P6SM SCT040
     FM220000 VRB03KT P6SM FEW250
      TEMPO 2209/2213 5SM BR
     FM221400 VRB03KT P6SM FEW035=

USA.gov is the U.S. government's official web portal to all federal, state and local government web resources and services.